Ncc Najd — HZAK — position and weather

sailwx.info

Track history (hours):
 
Tides and Currents Weather Stations Pressure Air Temp Water Temp Dewpoint Dewpoint Depression Visibility Wind Speed Wind Dir Waves Ship Positions

Ncc Najd

Last reported at 2014-Jul-20 23:32 UTC. Time now 2014-Jul-22 09:18 UTC.
Position N 29°59' E 121°45'.

Length 183 m; draft 12 m.

Type: Ship. MMSI: 403579000.

Date/timePositionNaut miles runAvg speedWind from/ knotsBaromVisibWave heightAir tempDewpointWater temp
2014-Jul-20 23:32N 29°59' E 121°45'4 4.4
2014-Jul-20 22:33N 29°58' E 121°50'4 3.8
2014-Jul-20 21:30N 29°58' E 121°55'0 0.1
2014-Jul-20 20:30N 29°58' E 121°55'0 0.1
2014-Jul-20 19:30N 29°58' E 121°55'0 0.1
2014-Jul-20 18:33N 29°58' E 121°55'0 0.1
2014-Jul-20 17:27N 29°58' E 121°55'0 0.0
2014-Jul-20 16:30N 29°58' E 121°55'0 0.0
2014-Jul-20 15:30N 29°58' E 121°55'0 0.0
2014-Jul-20 14:30N 29°58' E 121°55'0 0.0
2014-Jul-20 13:30N 29°58' E 121°55'0 0.0
2014-Jul-20 12:30N 29°58' E 121°55'0 0.1
2014-Jul-20 11:30N 29°58' E 121°55'0 0.1
2014-Jul-20 10:30N 29°58' E 121°55'0 0.1
2014-Jul-20 09:30N 29°58' E 121°55'1 1.1
2014-Jul-20 08:33N 29°58' E 121°54'1110.8
2014-Jul-20 07:34N 29°56' E 122°06'1212.0
2014-Jul-20 06:33N 29°47' E 122°16'9 9.3
2014-Jul-20 05:33N 29°44' E 122°26'1413.4
2014-Jul-20 04:33N 29°43' E 122°41'11 7.5
2014-Jul-20 03:07N 29°36' E 122°51'713.0
2014-Jul-20 02:33N 29°29' E 122°50'1413.8
2014-Jul-20 01:33N 29°15' E 122°50'41314.0
2014-Jul-18 20:04N 22°55' E 119°52'714.0
2014-Jul-18 19:33N 22°47' E 119°51'1414.2
2014-Jul-18 18:33N 22°33' E 119°52'  
Track history (hours):
 
Tides and Currents Weather Stations Pressure Air Temp Water Temp Dewpoint Dewpoint Depression Visibility Wind Speed Wind Dir Waves Ship Positions

Ncc Najd

Last reported at 2014-Jul-20 23:32 UTC. Time now 2014-Jul-22 09:18 UTC.
Position N 29°59' E 121°45'.

Length 183 m; draft 12 m.

Type: Ship. MMSI: 403579000.

Date/timePositionNaut miles runAvg speedWind from/ knotsBaromVisibWave heightAir tempDewpointWater temp
2014-Jul-20 23:32N 29°59' E 121°45'4 4.4
2014-Jul-20 22:33N 29°58' E 121°50'4 3.8
2014-Jul-20 21:30N 29°58' E 121°55'0 0.1
2014-Jul-20 20:30N 29°58' E 121°55'0 0.1
2014-Jul-20 19:30N 29°58' E 121°55'0 0.1
2014-Jul-20 18:33N 29°58' E 121°55'0 0.1
2014-Jul-20 17:27N 29°58' E 121°55'0 0.0
2014-Jul-20 16:30N 29°58' E 121°55'0 0.0
2014-Jul-20 15:30N 29°58' E 121°55'0 0.0
2014-Jul-20 14:30N 29°58' E 121°55'0 0.0
2014-Jul-20 13:30N 29°58' E 121°55'0 0.0
2014-Jul-20 12:30N 29°58' E 121°55'0 0.1
2014-Jul-20 11:30N 29°58' E 121°55'0 0.1
2014-Jul-20 10:30N 29°58' E 121°55'0 0.1
2014-Jul-20 09:30N 29°58' E 121°55'1 1.1
2014-Jul-20 08:33N 29°58' E 121°54'1110.8
2014-Jul-20 07:34N 29°56' E 122°06'1212.0
2014-Jul-20 06:33N 29°47' E 122°16'9 9.3
2014-Jul-20 05:33N 29°44' E 122°26'1413.4
2014-Jul-20 04:33N 29°43' E 122°41'11 7.5
2014-Jul-20 03:07N 29°36' E 122°51'713.0
2014-Jul-20 02:33N 29°29' E 122°50'1413.8
2014-Jul-20 01:33N 29°15' E 122°50'41314.0
2014-Jul-18 20:04N 22°55' E 119°52'714.0
2014-Jul-18 19:33N 22°47' E 119°51'1414.2
2014-Jul-18 18:33N 22°33' E 119°52'  

Dump ship's entire track history